sensor_id;sensor_type;location;lat;lon;timestamp;P1;durP1;ratioP1;P2;durP2;ratioP2
40599;SDS011;26309;50.924;4.754;2022-12-10T00:01:10;67.03;;;31.77;;
40599;SDS011;26309;50.924;4.754;2022-12-10T00:03:40;60.40;;;30.63;;
40599;SDS011;26309;50.924;4.754;2022-12-10T00:06:07;59.07;;;30.77;;
40599;SDS011;26309;50.924;4.754;2022-12-10T00:08:35;65.90;;;31.77;;
40599;SDS011;26309;50.924;4.754;2022-12-10T00:11:04;59.93;;;31.27;;
40599;SDS011;26309;50.924;4.754;2022-12-10T00:13:35;58.00;;;29.40;;
40599;SDS011;26309;50.924;4.754;2022-12-10T00:16:02;54.50;;;28.37;;
40599;SDS011;26309;50.924;4.754;2022-12-10T00:18:30;50.60;;;28.63;;
40599;SDS011;26309;50.924;4.754;2022-12-10T00:20:57;54.13;;;29.07;;
40599;SDS011;26309;50.924;4.754;2022-12-10T00:23:23;51.43;;;29.43;;
40599;SDS011;26309;50.924;4.754;2022-12-10T00:25:49;60.13;;;29.73;;
40599;SDS011;26309;50.924;4.754;2022-12-10T00:28:15;54.13;;;29.23;;
40599;SDS011;26309;50.924;4.754;2022-12-10T00:30:41;58.37;;;30.83;;
40599;SDS011;26309;50.924;4.754;2022-12-10T00:33:07;57.03;;;30.30;;
40599;SDS011;26309;50.924;4.754;2022-12-10T00:35:34;59.43;;;30.20;;
40599;SDS011;26309;50.924;4.754;2022-12-10T00:38:01;57.40;;;29.10;;
40599;SDS011;26309;50.924;4.754;2022-12-10T00:40:27;62.20;;;30.90;;
40599;SDS011;26309;50.924;4.754;2022-12-10T00:42:53;60.80;;;30.13;;
40599;SDS011;26309;50.924;4.754;2022-12-10T00:45:18;60.37;;;30.73;;
40599;SDS011;26309;50.924;4.754;2022-12-10T00:47:44;54.80;;;30.40;;
40599;SDS011;26309;50.924;4.754;2022-12-10T00:50:10;60.90;;;31.33;;
40599;SDS011;26309;50.924;4.754;2022-12-10T00:52:36;69.33;;;31.30;;
40599;SDS011;26309;50.924;4.754;2022-12-10T00:55:02;63.90;;;31.07;;
40599;SDS011;26309;50.924;4.754;2022-12-10T00:57:28;67.30;;;32.90;;
40599;SDS011;26309;50.924;4.754;2022-12-10T00:59:54;63.87;;;31.07;;
40599;SDS011;26309;50.924;4.754;2022-12-10T01:02:21;74.90;;;33.07;;
40599;SDS011;26309;50.924;4.754;2022-12-10T01:04:46;62.73;;;31.50;;
40599;SDS011;26309;50.924;4.754;2022-12-10T01:07:16;69.77;;;33.73;;
40599;SDS011;26309;50.924;4.754;2022-12-10T01:09:42;72.17;;;34.90;;
40599;SDS011;26309;50.924;4.754;2022-12-10T01:12:08;71.63;;;33.57;;
40599;SDS011;26309;50.924;4.754;2022-12-10T01:14:34;65.97;;;32.30;;
40599;SDS011;26309;50.924;4.754;2022-12-10T01:17:01;67.13;;;33.47;;
40599;SDS011;26309;50.924;4.754;2022-12-10T01:19:28;64.13;;;31.57;;
40599;SDS011;26309;50.924;4.754;2022-12-10T01:21:55;66.00;;;31.63;;
40599;SDS011;26309;50.924;4.754;2022-12-10T01:24:22;68.57;;;31.70;;
40599;SDS011;26309;50.924;4.754;2022-12-10T01:26:49;64.73;;;33.00;;
40599;SDS011;26309;50.924;4.754;2022-12-10T01:29:17;67.97;;;31.63;;
40599;SDS011;26309;50.924;4.754;2022-12-10T01:31:44;73.27;;;33.07;;
40599;SDS011;26309;50.924;4.754;2022-12-10T01:34:13;67.93;;;32.73;;
40599;SDS011;26309;50.924;4.754;2022-12-10T01:36:40;67.10;;;31.27;;
40599;SDS011;26309;50.924;4.754;2022-12-10T01:39:09;64.73;;;32.83;;
40599;SDS011;26309;50.924;4.754;2022-12-10T01:41:41;65.77;;;32.60;;
40599;SDS011;26309;50.924;4.754;2022-12-10T01:46:39;67.50;;;31.73;;
40599;SDS011;26309;50.924;4.754;2022-12-10T01:49:08;63.80;;;31.70;;
40599;SDS011;26309;50.924;4.754;2022-12-10T01:51:39;61.67;;;30.53;;
40599;SDS011;26309;50.924;4.754;2022-12-10T01:54:09;64.13;;;29.30;;
40599;SDS011;26309;50.924;4.754;2022-12-10T01:56:44;66.73;;;32.13;;
40599;SDS011;26309;50.924;4.754;2022-12-10T01:59:15;61.97;;;30.07;;
40599;SDS011;26309;50.924;4.754;2022-12-10T02:04:34;60.37;;;30.17;;
40599;SDS011;26309;50.924;4.754;2022-12-10T02:07:25;59.57;;;28.17;;
40599;SDS011;26309;50.924;4.754;2022-12-10T02:13:04;64.33;;;29.83;;
40599;SDS011;26309;50.924;4.754;2022-12-10T02:15:42;59.73;;;28.83;;
40599;SDS011;26309;50.924;4.754;2022-12-10T02:18:26;58.93;;;29.43;;
40599;SDS011;26309;50.924;4.754;2022-12-10T02:20:57;53.60;;;24.93;;
40599;SDS011;26309;50.924;4.754;2022-12-10T02:23:28;57.53;;;28.23;;
40599;SDS011;26309;50.924;4.754;2022-12-10T02:26:02;57.17;;;28.27;;
40599;SDS011;26309;50.924;4.754;2022-12-10T02:28:51;54.47;;;26.83;;
40599;SDS011;26309;50.924;4.754;2022-12-10T02:31:37;57.23;;;25.07;;
40599;SDS011;26309;50.924;4.754;2022-12-10T02:34:18;50.77;;;25.57;;
40599;SDS011;26309;50.924;4.754;2022-12-10T02:36:46;58.60;;;26.33;;
40599;SDS011;26309;50.924;4.754;2022-12-10T02:39:17;54.73;;;26.60;;
40599;SDS011;26309;50.924;4.754;2022-12-10T02:41:49;54.93;;;26.77;;
40599;SDS011;26309;50.924;4.754;2022-12-10T02:44:17;58.63;;;25.50;;
40599;SDS011;26309;50.924;4.754;2022-12-10T02:46:45;58.53;;;27.80;;
40599;SDS011;26309;50.924;4.754;2022-12-10T02:49:14;59.53;;;27.43;;
40599;SDS011;26309;50.924;4.754;2022-12-10T02:51:41;61.83;;;28.37;;
40599;SDS011;26309;50.924;4.754;2022-12-10T02:57:00;57.37;;;25.77;;
40599;SDS011;26309;50.924;4.754;2022-12-10T02:59:47;58.50;;;28.13;;
40599;SDS011;26309;50.924;4.754;2022-12-10T03:02:39;59.80;;;27.23;;
40599;SDS011;26309;50.924;4.754;2022-12-10T03:05:59;56.43;;;26.43;;
40599;SDS011;26309;50.924;4.754;2022-12-10T03:08:24;54.23;;;26.30;;
40599;SDS011;26309;50.924;4.754;2022-12-10T03:11:15;63.43;;;27.70;;
40599;SDS011;26309;50.924;4.754;2022-12-10T03:16:33;54.03;;;27.03;;
40599;SDS011;26309;50.924;4.754;2022-12-10T03:19:05;57.67;;;26.27;;
40599;SDS011;26309;50.924;4.754;2022-12-10T03:21:36;57.80;;;26.97;;
40599;SDS011;26309;50.924;4.754;2022-12-10T03:24:04;53.97;;;26.90;;
40599;SDS011;26309;50.924;4.754;2022-12-10T03:26:31;56.50;;;27.33;;
40599;SDS011;26309;50.924;4.754;2022-12-10T03:29:01;51.37;;;25.63;;
40599;SDS011;26309;50.924;4.754;2022-12-10T03:31:31;58.20;;;28.20;;
40599;SDS011;26309;50.924;4.754;2022-12-10T03:34:00;55.30;;;27.40;;
40599;SDS011;26309;50.924;4.754;2022-12-10T03:36:27;53.37;;;26.30;;
40599;SDS011;26309;50.924;4.754;2022-12-10T03:38:56;54.43;;;25.70;;
40599;SDS011;26309;50.924;4.754;2022-12-10T03:41:22;49.93;;;24.20;;
40599;SDS011;26309;50.924;4.754;2022-12-10T03:43:52;55.97;;;27.57;;
40599;SDS011;26309;50.924;4.754;2022-12-10T03:46:19;55.67;;;26.13;;
40599;SDS011;26309;50.924;4.754;2022-12-10T03:48:46;53.73;;;26.60;;
40599;SDS011;26309;50.924;4.754;2022-12-10T03:51:11;61.27;;;26.20;;
40599;SDS011;26309;50.924;4.754;2022-12-10T03:53:38;58.77;;;26.63;;
40599;SDS011;26309;50.924;4.754;2022-12-10T03:56:05;61.03;;;26.93;;
40599;SDS011;26309;50.924;4.754;2022-12-10T03:58:30;59.57;;;26.50;;
40599;SDS011;26309;50.924;4.754;2022-12-10T04:00:56;59.00;;;26.77;;
40599;SDS011;26309;50.924;4.754;2022-12-10T04:03:22;57.53;;;27.53;;
40599;SDS011;26309;50.924;4.754;2022-12-10T04:05:48;61.70;;;28.43;;
40599;SDS011;26309;50.924;4.754;2022-12-10T04:08:14;69.77;;;29.20;;
40599;SDS011;26309;50.924;4.754;2022-12-10T04:10:40;61.63;;;28.30;;
40599;SDS011;26309;50.924;4.754;2022-12-10T04:13:05;65.20;;;30.23;;
40599;SDS011;26309;50.924;4.754;2022-12-10T04:15:50;65.50;;;28.27;;
40599;SDS011;26309;50.924;4.754;2022-12-10T04:18:34;66.67;;;28.63;;
40599;SDS011;26309;50.924;4.754;2022-12-10T04:21:00;73.77;;;31.30;;
40599;SDS011;26309;50.924;4.754;2022-12-10T04:23:44;74.03;;;30.43;;
40599;SDS011;26309;50.924;4.754;2022-12-10T04:26:28;69.80;;;28.47;;
40599;SDS011;26309;50.924;4.754;2022-12-10T04:29:13;70.43;;;29.87;;
40599;SDS011;26309;50.924;4.754;2022-12-10T04:31:39;69.63;;;30.00;;
40599;SDS011;26309;50.924;4.754;2022-12-10T04:34:04;67.63;;;29.43;;
40599;SDS011;26309;50.924;4.754;2022-12-10T04:36:30;72.63;;;30.43;;
40599;SDS011;26309;50.924;4.754;2022-12-10T04:38:56;66.43;;;29.57;;
40599;SDS011;26309;50.924;4.754;2022-12-10T04:41:23;77.77;;;31.77;;
40599;SDS011;26309;50.924;4.754;2022-12-10T04:43:49;76.53;;;30.97;;
40599;SDS011;26309;50.924;4.754;2022-12-10T04:46:15;73.67;;;31.77;;
40599;SDS011;26309;50.924;4.754;2022-12-10T04:48:41;81.03;;;31.77;;
40599;SDS011;26309;50.924;4.754;2022-12-10T04:51:06;69.67;;;29.13;;
40599;SDS011;26309;50.924;4.754;2022-12-10T04:53:33;74.07;;;29.20;;
40599;SDS011;26309;50.924;4.754;2022-12-10T04:55:59;69.53;;;29.80;;
40599;SDS011;26309;50.924;4.754;2022-12-10T04:58:26;67.73;;;28.80;;
40599;SDS011;26309;50.924;4.754;2022-12-10T05:01:06;67.13;;;29.07;;
40599;SDS011;26309;50.924;4.754;2022-12-10T05:03:34;63.30;;;27.47;;
40599;SDS011;26309;50.924;4.754;2022-12-10T05:06:04;64.50;;;29.00;;
40599;SDS011;26309;50.924;4.754;2022-12-10T05:08:35;66.10;;;29.50;;
40599;SDS011;26309;50.924;4.754;2022-12-10T05:11:14;71.40;;;30.50;;
40599;SDS011;26309;50.924;4.754;2022-12-10T05:13:42;69.77;;;31.07;;
40599;SDS011;26309;50.924;4.754;2022-12-10T05:16:09;65.20;;;29.17;;
40599;SDS011;26309;50.924;4.754;2022-12-10T05:18:36;68.53;;;28.83;;
40599;SDS011;26309;50.924;4.754;2022-12-10T05:21:03;65.83;;;28.90;;
40599;SDS011;26309;50.924;4.754;2022-12-10T05:23:31;68.07;;;28.63;;
40599;SDS011;26309;50.924;4.754;2022-12-10T05:28:29;72.90;;;30.80;;
40599;SDS011;26309;50.924;4.754;2022-12-10T05:30:57;72.97;;;30.20;;
40599;SDS011;26309;50.924;4.754;2022-12-10T05:33:23;72.87;;;31.87;;
40599;SDS011;26309;50.924;4.754;2022-12-10T05:35:54;78.40;;;32.50;;
40599;SDS011;26309;50.924;4.754;2022-12-10T05:38:24;79.43;;;32.53;;
40599;SDS011;26309;50.924;4.754;2022-12-10T05:40:51;79.73;;;32.03;;
40599;SDS011;26309;50.924;4.754;2022-12-10T05:43:17;79.87;;;33.80;;
40599;SDS011;26309;50.924;4.754;2022-12-10T05:45:43;77.47;;;34.80;;
40599;SDS011;26309;50.924;4.754;2022-12-10T05:48:10;75.40;;;32.40;;
40599;SDS011;26309;50.924;4.754;2022-12-10T05:50:36;80.33;;;33.57;;
40599;SDS011;26309;50.924;4.754;2022-12-10T05:53:02;79.73;;;35.93;;
40599;SDS011;26309;50.924;4.754;2022-12-10T05:55:29;76.00;;;33.10;;
40599;SDS011;26309;50.924;4.754;2022-12-10T05:57:59;79.40;;;33.20;;
40599;SDS011;26309;50.924;4.754;2022-12-10T06:00:26;83.27;;;34.70;;
40599;SDS011;26309;50.924;4.754;2022-12-10T06:02:52;79.93;;;32.87;;
40599;SDS011;26309;50.924;4.754;2022-12-10T06:05:19;84.80;;;34.67;;
40599;SDS011;26309;50.924;4.754;2022-12-10T06:07:45;84.63;;;35.07;;
40599;SDS011;26309;50.924;4.754;2022-12-10T06:10:11;86.73;;;36.77;;
40599;SDS011;26309;50.924;4.754;2022-12-10T06:12:37;79.27;;;34.40;;
40599;SDS011;26309;50.924;4.754;2022-12-10T06:15:04;87.03;;;36.20;;
40599;SDS011;26309;50.924;4.754;2022-12-10T06:17:30;77.57;;;33.83;;
40599;SDS011;26309;50.924;4.754;2022-12-10T06:19:56;82.07;;;33.30;;
40599;SDS011;26309;50.924;4.754;2022-12-10T06:22:23;86.40;;;35.40;;
40599;SDS011;26309;50.924;4.754;2022-12-10T06:24:49;81.53;;;34.17;;
40599;SDS011;26309;50.924;4.754;2022-12-10T06:27:16;85.20;;;33.90;;
40599;SDS011;26309;50.924;4.754;2022-12-10T06:29:42;83.03;;;34.80;;
40599;SDS011;26309;50.924;4.754;2022-12-10T06:32:09;80.43;;;34.63;;
40599;SDS011;26309;50.924;4.754;2022-12-10T06:34:35;85.13;;;36.33;;
40599;SDS011;26309;50.924;4.754;2022-12-10T06:37:01;88.93;;;35.03;;
40599;SDS011;26309;50.924;4.754;2022-12-10T06:39:27;79.90;;;34.57;;
40599;SDS011;26309;50.924;4.754;2022-12-10T06:41:52;82.63;;;33.67;;
40599;SDS011;26309;50.924;4.754;2022-12-10T06:44:18;85.63;;;33.83;;
40599;SDS011;26309;50.924;4.754;2022-12-10T06:46:44;84.57;;;34.43;;
40599;SDS011;26309;50.924;4.754;2022-12-10T06:49:10;81.60;;;34.50;;
40599;SDS011;26309;50.924;4.754;2022-12-10T06:51:36;82.47;;;34.20;;
40599;SDS011;26309;50.924;4.754;2022-12-10T06:54:04;75.40;;;33.17;;
40599;SDS011;26309;50.924;4.754;2022-12-10T06:56:31;80.17;;;34.37;;
40599;SDS011;26309;50.924;4.754;2022-12-10T06:58:57;80.97;;;34.83;;
40599;SDS011;26309;50.924;4.754;2022-12-10T07:01:23;86.97;;;35.27;;
40599;SDS011;26309;50.924;4.754;2022-12-10T07:03:53;81.50;;;33.63;;
40599;SDS011;26309;50.924;4.754;2022-12-10T07:06:24;84.00;;;33.03;;
40599;SDS011;26309;50.924;4.754;2022-12-10T07:08:51;84.50;;;33.10;;
40599;SDS011;26309;50.924;4.754;2022-12-10T07:11:18;81.03;;;34.03;;
40599;SDS011;26309;50.924;4.754;2022-12-10T07:13:46;72.67;;;33.27;;
40599;SDS011;26309;50.924;4.754;2022-12-10T07:16:13;76.53;;;30.77;;
40599;SDS011;26309;50.924;4.754;2022-12-10T07:18:40;73.93;;;32.73;;
40599;SDS011;26309;50.924;4.754;2022-12-10T07:21:28;85.77;;;33.93;;
40599;SDS011;26309;50.924;4.754;2022-12-10T07:23:57;84.13;;;34.63;;
40599;SDS011;26309;50.924;4.754;2022-12-10T07:26:27;85.57;;;35.23;;
40599;SDS011;26309;50.924;4.754;2022-12-10T07:28:54;87.63;;;35.93;;
40599;SDS011;26309;50.924;4.754;2022-12-10T07:31:23;89.30;;;35.13;;
40599;SDS011;26309;50.924;4.754;2022-12-10T07:33:49;94.17;;;36.00;;
40599;SDS011;26309;50.924;4.754;2022-12-10T07:36:16;97.47;;;36.17;;
40599;SDS011;26309;50.924;4.754;2022-12-10T07:38:42;89.77;;;35.13;;
40599;SDS011;26309;50.924;4.754;2022-12-10T07:41:09;81.27;;;33.57;;
40599;SDS011;26309;50.924;4.754;2022-12-10T07:43:37;90.47;;;32.27;;
40599;SDS011;26309;50.924;4.754;2022-12-10T07:46:09;101.07;;;33.90;;
40599;SDS011;26309;50.924;4.754;2022-12-10T07:48:39;86.13;;;32.03;;
40599;SDS011;26309;50.924;4.754;2022-12-10T07:51:06;101.47;;;35.47;;
40599;SDS011;26309;50.924;4.754;2022-12-10T07:53:32;92.80;;;34.27;;
40599;SDS011;26309;50.924;4.754;2022-12-10T07:55:58;92.63;;;36.17;;
40599;SDS011;26309;50.924;4.754;2022-12-10T07:58:25;108.03;;;36.90;;
40599;SDS011;26309;50.924;4.754;2022-12-10T08:00:50;94.60;;;35.53;;
40599;SDS011;26309;50.924;4.754;2022-12-10T08:03:16;101.17;;;38.77;;
40599;SDS011;26309;50.924;4.754;2022-12-10T08:05:42;97.07;;;36.33;;
40599;SDS011;26309;50.924;4.754;2022-12-10T08:08:08;109.70;;;39.10;;
40599;SDS011;26309;50.924;4.754;2022-12-10T08:10:34;109.07;;;38.80;;
40599;SDS011;26309;50.924;4.754;2022-12-10T08:13:01;94.13;;;35.93;;
40599;SDS011;26309;50.924;4.754;2022-12-10T08:15:27;110.63;;;37.50;;
40599;SDS011;26309;50.924;4.754;2022-12-10T08:17:55;96.57;;;36.60;;
40599;SDS011;26309;50.924;4.754;2022-12-10T08:20:22;90.30;;;35.30;;
40599;SDS011;26309;50.924;4.754;2022-12-10T08:22:48;98.33;;;40.20;;
40599;SDS011;26309;50.924;4.754;2022-12-10T08:25:14;115.80;;;39.93;;
40599;SDS011;26309;50.924;4.754;2022-12-10T08:27:40;98.87;;;37.17;;
40599;SDS011;26309;50.924;4.754;2022-12-10T08:30:06;96.93;;;37.20;;
40599;SDS011;26309;50.924;4.754;2022-12-10T08:32:33;107.17;;;38.90;;
40599;SDS011;26309;50.924;4.754;2022-12-10T08:34:58;111.57;;;39.23;;
40599;SDS011;26309;50.924;4.754;2022-12-10T08:37:24;120.77;;;40.13;;
40599;SDS011;26309;50.924;4.754;2022-12-10T08:39:50;103.20;;;38.23;;
40599;SDS011;26309;50.924;4.754;2022-12-10T08:42:16;100.60;;;38.47;;
40599;SDS011;26309;50.924;4.754;2022-12-10T08:44:42;95.23;;;35.13;;
40599;SDS011;26309;50.924;4.754;2022-12-10T08:47:07;90.13;;;34.23;;
40599;SDS011;26309;50.924;4.754;2022-12-10T08:49:33;85.30;;;31.27;;
40599;SDS011;26309;50.924;4.754;2022-12-10T08:51:59;92.50;;;34.30;;
40599;SDS011;26309;50.924;4.754;2022-12-10T08:54:25;86.20;;;32.47;;
40599;SDS011;26309;50.924;4.754;2022-12-10T08:56:51;78.43;;;30.00;;
40599;SDS011;26309;50.924;4.754;2022-12-10T08:59:17;93.33;;;34.03;;
40599;SDS011;26309;50.924;4.754;2022-12-10T09:01:43;79.63;;;31.70;;
40599;SDS011;26309;50.924;4.754;2022-12-10T09:04:09;82.67;;;32.63;;
40599;SDS011;26309;50.924;4.754;2022-12-10T09:06:34;88.10;;;32.70;;
40599;SDS011;26309;50.924;4.754;2022-12-10T09:09:00;86.90;;;32.10;;
40599;SDS011;26309;50.924;4.754;2022-12-10T09:11:30;81.27;;;31.10;;
40599;SDS011;26309;50.924;4.754;2022-12-10T09:13:58;85.87;;;31.83;;
40599;SDS011;26309;50.924;4.754;2022-12-10T09:16:28;80.47;;;31.20;;
40599;SDS011;26309;50.924;4.754;2022-12-10T09:18:59;81.00;;;31.10;;
40599;SDS011;26309;50.924;4.754;2022-12-10T09:21:25;73.73;;;31.13;;
40599;SDS011;26309;50.924;4.754;2022-12-10T09:23:52;84.20;;;32.80;;
40599;SDS011;26309;50.924;4.754;2022-12-10T09:26:18;74.27;;;29.80;;
40599;SDS011;26309;50.924;4.754;2022-12-10T09:28:45;78.07;;;30.90;;
40599;SDS011;26309;50.924;4.754;2022-12-10T09:31:12;69.47;;;29.50;;
40599;SDS011;26309;50.924;4.754;2022-12-10T09:33:39;75.53;;;28.77;;
40599;SDS011;26309;50.924;4.754;2022-12-10T09:36:06;75.53;;;29.43;;
40599;SDS011;26309;50.924;4.754;2022-12-10T09:38:34;76.80;;;30.03;;
40599;SDS011;26309;50.924;4.754;2022-12-10T09:41:01;82.80;;;30.37;;
40599;SDS011;26309;50.924;4.754;2022-12-10T09:43:49;74.53;;;27.90;;
40599;SDS011;26309;50.924;4.754;2022-12-10T09:51:55;74.93;;;28.87;;
40599;SDS011;26309;50.924;4.754;2022-12-10T09:54:25;73.57;;;29.90;;
40599;SDS011;26309;50.924;4.754;2022-12-10T09:56:55;77.33;;;29.47;;
40599;SDS011;26309;50.924;4.754;2022-12-10T09:59:44;72.13;;;30.43;;
40599;SDS011;26309;50.924;4.754;2022-12-10T10:05:01;66.20;;;25.00;;
40599;SDS011;26309;50.924;4.754;2022-12-10T10:07:31;67.80;;;26.87;;
40599;SDS011;26309;50.924;4.754;2022-12-10T10:10:06;64.80;;;26.83;;
40599;SDS011;26309;50.924;4.754;2022-12-10T10:12:44;61.23;;;25.40;;
40599;SDS011;26309;50.924;4.754;2022-12-10T10:15:15;62.93;;;25.57;;
40599;SDS011;26309;50.924;4.754;2022-12-10T10:17:43;63.20;;;24.87;;
40599;SDS011;26309;50.924;4.754;2022-12-10T10:20:12;63.53;;;25.97;;
40599;SDS011;26309;50.924;4.754;2022-12-10T10:22:39;62.33;;;25.73;;
40599;SDS011;26309;50.924;4.754;2022-12-10T10:25:06;59.33;;;24.93;;
40599;SDS011;26309;50.924;4.754;2022-12-10T10:27:42;59.93;;;24.73;;
40599;SDS011;26309;50.924;4.754;2022-12-10T10:30:18;67.70;;;26.67;;
40599;SDS011;26309;50.924;4.754;2022-12-10T10:32:47;64.77;;;26.97;;
40599;SDS011;26309;50.924;4.754;2022-12-10T10:35:31;68.50;;;27.13;;
40599;SDS011;26309;50.924;4.754;2022-12-10T10:38:07;67.27;;;27.77;;
40599;SDS011;26309;50.924;4.754;2022-12-10T10:40:41;64.90;;;26.23;;
40599;SDS011;26309;50.924;4.754;2022-12-10T10:43:14;59.37;;;26.33;;
40599;SDS011;26309;50.924;4.754;2022-12-10T10:46:01;63.67;;;24.67;;
40599;SDS011;26309;50.924;4.754;2022-12-10T10:48:46;56.73;;;24.50;;
40599;SDS011;26309;50.924;4.754;2022-12-10T10:56:21;61.03;;;25.23;;
40599;SDS011;26309;50.924;4.754;2022-12-10T10:58:53;62.27;;;27.33;;
40599;SDS011;26309;50.924;4.754;2022-12-10T11:04:31;60.97;;;26.00;;
40599;SDS011;26309;50.924;4.754;2022-12-10T11:07:20;64.70;;;27.43;;
40599;SDS011;26309;50.924;4.754;2022-12-10T11:10:04;55.07;;;24.13;;
40599;SDS011;26309;50.924;4.754;2022-12-10T11:12:56;64.00;;;26.43;;
40599;SDS011;26309;50.924;4.754;2022-12-10T11:23:36;58.43;;;24.63;;
40599;SDS011;26309;50.924;4.754;2022-12-10T11:29:18;70.53;;;28.23;;
40599;SDS011;26309;50.924;4.754;2022-12-10T11:37:32;69.37;;;29.27;;
40599;SDS011;26309;50.924;4.754;2022-12-10T11:40:11;74.33;;;31.33;;
40599;SDS011;26309;50.924;4.754;2022-12-10T11:51:00;67.30;;;28.70;;
40599;SDS011;26309;50.924;4.754;2022-12-10T11:58:54;59.47;;;27.70;;
40599;SDS011;26309;50.924;4.754;2022-12-10T12:12:18;65.97;;;28.50;;
40599;SDS011;26309;50.924;4.754;2022-12-10T12:22:46;63.47;;;27.80;;
40599;SDS011;26309;50.924;4.754;2022-12-10T12:25:28;71.97;;;31.03;;
40599;SDS011;26309;50.924;4.754;2022-12-10T12:30:37;71.20;;;28.23;;
40599;SDS011;26309;50.924;4.754;2022-12-10T12:35:46;65.00;;;30.03;;
40599;SDS011;26309;50.924;4.754;2022-12-10T12:41:06;62.73;;;27.07;;
40599;SDS011;26309;50.924;4.754;2022-12-10T12:43:44;66.77;;;29.23;;
40599;SDS011;26309;50.924;4.754;2022-12-10T12:46:19;59.13;;;27.23;;
40599;SDS011;26309;50.924;4.754;2022-12-10T12:49:02;60.23;;;27.77;;
40599;SDS011;26309;50.924;4.754;2022-12-10T12:51:38;64.17;;;27.57;;
40599;SDS011;26309;50.924;4.754;2022-12-10T12:54:11;56.00;;;26.63;;
40599;SDS011;26309;50.924;4.754;2022-12-10T12:59:46;67.37;;;27.47;;
40599;SDS011;26309;50.924;4.754;2022-12-10T13:02:28;65.93;;;28.07;;
40599;SDS011;26309;50.924;4.754;2022-12-10T13:13:33;65.90;;;26.80;;
40599;SDS011;26309;50.924;4.754;2022-12-10T13:24:44;65.50;;;29.00;;
40599;SDS011;26309;50.924;4.754;2022-12-10T13:29:55;59.87;;;26.87;;
40599;SDS011;26309;50.924;4.754;2022-12-10T13:35:16;66.20;;;27.07;;
40599;SDS011;26309;50.924;4.754;2022-12-10T13:43:37;57.57;;;25.93;;
40599;SDS011;26309;50.924;4.754;2022-12-10T13:46:30;63.30;;;27.80;;
40599;SDS011;26309;50.924;4.754;2022-12-10T13:49:03;59.30;;;26.07;;
40599;SDS011;26309;50.924;4.754;2022-12-10T13:59:54;56.60;;;25.80;;
40599;SDS011;26309;50.924;4.754;2022-12-10T14:08:17;54.97;;;25.67;;
40599;SDS011;26309;50.924;4.754;2022-12-10T14:10:48;57.57;;;27.83;;
40599;SDS011;26309;50.924;4.754;2022-12-10T14:13:15;58.93;;;26.23;;
40599;SDS011;26309;50.924;4.754;2022-12-10T14:15:55;54.17;;;24.23;;
40599;SDS011;26309;50.924;4.754;2022-12-10T14:18:23;57.33;;;25.10;;
40599;SDS011;26309;50.924;4.754;2022-12-10T14:20:52;63.03;;;26.93;;
40599;SDS011;26309;50.924;4.754;2022-12-10T14:23:23;57.87;;;26.10;;
40599;SDS011;26309;50.924;4.754;2022-12-10T14:26:09;57.83;;;25.93;;
40599;SDS011;26309;50.924;4.754;2022-12-10T14:28:47;55.20;;;24.73;;
40599;SDS011;26309;50.924;4.754;2022-12-10T14:31:39;56.87;;;26.27;;
40599;SDS011;26309;50.924;4.754;2022-12-10T14:34:12;56.60;;;25.33;;
40599;SDS011;26309;50.924;4.754;2022-12-10T14:39:14;69.47;;;27.80;;
40599;SDS011;26309;50.924;4.754;2022-12-10T14:41:42;63.67;;;28.43;;
40599;SDS011;26309;50.924;4.754;2022-12-10T14:44:11;58.17;;;27.97;;
40599;SDS011;26309;50.924;4.754;2022-12-10T14:46:40;55.80;;;25.80;;
40599;SDS011;26309;50.924;4.754;2022-12-10T14:49:08;67.67;;;27.43;;
40599;SDS011;26309;50.924;4.754;2022-12-10T14:51:45;54.80;;;25.53;;
40599;SDS011;26309;50.924;4.754;2022-12-10T14:56:58;57.63;;;25.63;;
40599;SDS011;26309;50.924;4.754;2022-12-10T14:59:29;59.10;;;26.40;;
40599;SDS011;26309;50.924;4.754;2022-12-10T15:02:12;68.27;;;27.47;;
40599;SDS011;26309;50.924;4.754;2022-12-10T15:04:51;62.53;;;26.83;;
40599;SDS011;26309;50.924;4.754;2022-12-10T15:07:18;58.77;;;26.60;;
40599;SDS011;26309;50.924;4.754;2022-12-10T15:09:48;67.13;;;28.10;;
40599;SDS011;26309;50.924;4.754;2022-12-10T15:12:27;60.20;;;26.83;;
40599;SDS011;26309;50.924;4.754;2022-12-10T15:15:07;60.10;;;27.37;;
40599;SDS011;26309;50.924;4.754;2022-12-10T15:17:39;59.00;;;26.70;;
40599;SDS011;26309;50.924;4.754;2022-12-10T15:20:18;56.07;;;25.93;;
40599;SDS011;26309;50.924;4.754;2022-12-10T15:23:25;64.80;;;26.73;;
40599;SDS011;26309;50.924;4.754;2022-12-10T15:28:31;62.00;;;27.23;;
40599;SDS011;26309;50.924;4.754;2022-12-10T15:34:00;63.77;;;25.53;;
40599;SDS011;26309;50.924;4.754;2022-12-10T15:36:36;67.80;;;25.77;;
40599;SDS011;26309;50.924;4.754;2022-12-10T15:39:04;65.23;;;26.53;;
40599;SDS011;26309;50.924;4.754;2022-12-10T15:41:47;64.10;;;26.53;;
40599;SDS011;26309;50.924;4.754;2022-12-10T15:47:03;68.07;;;27.00;;
40599;SDS011;26309;50.924;4.754;2022-12-10T15:49:37;65.00;;;25.40;;
40599;SDS011;26309;50.924;4.754;2022-12-10T15:52:03;73.43;;;27.70;;
40599;SDS011;26309;50.924;4.754;2022-12-10T15:57:22;60.13;;;26.27;;
40599;SDS011;26309;50.924;4.754;2022-12-10T15:59:51;60.80;;;26.70;;
40599;SDS011;26309;50.924;4.754;2022-12-10T16:05:13;67.07;;;27.07;;
40599;SDS011;26309;50.924;4.754;2022-12-10T16:07:40;68.40;;;26.30;;
40599;SDS011;26309;50.924;4.754;2022-12-10T16:10:06;64.30;;;27.17;;
40599;SDS011;26309;50.924;4.754;2022-12-10T16:12:33;65.70;;;28.63;;
40599;SDS011;26309;50.924;4.754;2022-12-10T16:15:01;67.17;;;26.80;;
40599;SDS011;26309;50.924;4.754;2022-12-10T16:17:28;62.00;;;25.63;;
40599;SDS011;26309;50.924;4.754;2022-12-10T16:22:39;64.17;;;24.83;;
40599;SDS011;26309;50.924;4.754;2022-12-10T16:25:05;62.90;;;24.97;;
40599;SDS011;26309;50.924;4.754;2022-12-10T16:27:31;58.40;;;25.67;;
40599;SDS011;26309;50.924;4.754;2022-12-10T16:32:36;52.90;;;23.53;;
40599;SDS011;26309;50.924;4.754;2022-12-10T16:35:02;62.60;;;26.40;;
40599;SDS011;26309;50.924;4.754;2022-12-10T16:37:28;58.33;;;24.03;;
40599;SDS011;26309;50.924;4.754;2022-12-10T16:39:54;60.50;;;25.20;;
40599;SDS011;26309;50.924;4.754;2022-12-10T16:42:20;58.30;;;24.40;;
40599;SDS011;26309;50.924;4.754;2022-12-10T16:44:46;62.40;;;25.03;;
40599;SDS011;26309;50.924;4.754;2022-12-10T16:47:12;53.27;;;24.13;;
40599;SDS011;26309;50.924;4.754;2022-12-10T16:49:37;55.87;;;23.87;;
40599;SDS011;26309;50.924;4.754;2022-12-10T16:52:03;62.83;;;25.80;;
40599;SDS011;26309;50.924;4.754;2022-12-10T16:54:30;61.70;;;25.60;;
40599;SDS011;26309;50.924;4.754;2022-12-10T16:56:56;57.17;;;24.60;;
40599;SDS011;26309;50.924;4.754;2022-12-10T16:59:23;60.23;;;25.63;;
40599;SDS011;26309;50.924;4.754;2022-12-10T17:01:48;55.73;;;24.53;;
40599;SDS011;26309;50.924;4.754;2022-12-10T17:04:14;58.30;;;25.17;;
40599;SDS011;26309;50.924;4.754;2022-12-10T17:06:40;60.43;;;25.37;;
40599;SDS011;26309;50.924;4.754;2022-12-10T17:09:07;55.87;;;25.23;;
40599;SDS011;26309;50.924;4.754;2022-12-10T17:11:38;60.80;;;25.90;;
40599;SDS011;26309;50.924;4.754;2022-12-10T17:14:20;61.50;;;24.87;;
40599;SDS011;26309;50.924;4.754;2022-12-10T17:16:52;54.10;;;25.23;;
40599;SDS011;26309;50.924;4.754;2022-12-10T17:19:20;64.17;;;26.50;;